sensor_id;sensor_type;location;lat;lon;timestamp;temperature;humidity
18694;DHT22;9477;51.414;10.362;2023-03-03T00:00:04;2.00;87.50
18694;DHT22;9477;51.414;10.362;2023-03-03T00:02:08;1.60;89.60
18694;DHT22;9477;51.414;10.362;2023-03-03T00:04:20;1.50;90.00
18694;DHT22;9477;51.414;10.362;2023-03-03T00:06:24;1.50;90.30
18694;DHT22;9477;51.414;10.362;2023-03-03T00:08:27;1.60;90.90
18694;DHT22;9477;51.414;10.362;2023-03-03T00:10:31;1.70;91.00
18694;DHT22;9477;51.414;10.362;2023-03-03T00:12:34;2.00;90.30
18694;DHT22;9477;51.414;10.362;2023-03-03T00:14:39;2.00;90.60
18694;DHT22;9477;51.414;10.362;2023-03-03T00:16:42;2.10;90.20
18694;DHT22;9477;51.414;10.362;2023-03-03T00:18:46;2.20;90.10
18694;DHT22;9477;51.414;10.362;2023-03-03T00:20:52;2.30;90.30
18694;DHT22;9477;51.414;10.362;2023-03-03T00:22:58;2.30;90.00
18694;DHT22;9477;51.414;10.362;2023-03-03T00:25:25;2.10;90.30
18694;DHT22;9477;51.414;10.362;2023-03-03T00:27:30;2.20;90.40
18694;DHT22;9477;51.414;10.362;2023-03-03T00:29:39;2.20;90.30
18694;DHT22;9477;51.414;10.362;2023-03-03T00:31:43;2.30;90.50
18694;DHT22;9477;51.414;10.362;2023-03-03T00:33:48;2.20;90.70
18694;DHT22;9477;51.414;10.362;2023-03-03T00:35:55;2.20;91.10
18694;DHT22;9477;51.414;10.362;2023-03-03T00:38:01;2.20;91.00
18694;DHT22;9477;51.414;10.362;2023-03-03T00:40:22;2.10;91.10
18694;DHT22;9477;51.414;10.362;2023-03-03T00:42:26;2.30;91.30
18694;DHT22;9477;51.414;10.362;2023-03-03T00:44:39;2.60;91.40
18694;DHT22;9477;51.414;10.362;2023-03-03T00:46:42;2.80;91.10
18694;DHT22;9477;51.414;10.362;2023-03-03T00:48:46;2.80;91.00
18694;DHT22;9477;51.414;10.362;2023-03-03T00:50:50;2.80;90.70
18694;DHT22;9477;51.414;10.362;2023-03-03T00:53:01;2.90;90.50
18694;DHT22;9477;51.414;10.362;2023-03-03T00:55:05;2.80;90.60
18694;DHT22;9477;51.414;10.362;2023-03-03T00:57:09;3.00;90.70
18694;DHT22;9477;51.414;10.362;2023-03-03T00:59:13;3.10;90.70
18694;DHT22;9477;51.414;10.362;2023-03-03T01:01:16;3.00;90.60
18694;DHT22;9477;51.414;10.362;2023-03-03T01:03:21;2.90;90.70
18694;DHT22;9477;51.414;10.362;2023-03-03T01:05:25;2.90;90.70
18694;DHT22;9477;51.414;10.362;2023-03-03T01:07:28;3.00;90.60
18694;DHT22;9477;51.414;10.362;2023-03-03T01:09:32;3.00;90.70
18694;DHT22;9477;51.414;10.362;2023-03-03T01:11:35;3.10;90.70
18694;DHT22;9477;51.414;10.362;2023-03-03T01:13:39;3.10;90.70
18694;DHT22;9477;51.414;10.362;2023-03-03T01:15:42;3.10;90.70
18694;DHT22;9477;51.414;10.362;2023-03-03T01:17:45;3.00;90.70
18694;DHT22;9477;51.414;10.362;2023-03-03T01:19:48;3.00;90.90
18694;DHT22;9477;51.414;10.362;2023-03-03T01:21:51;3.20;90.80
18694;DHT22;9477;51.414;10.362;2023-03-03T01:23:54;3.40;90.70
18694;DHT22;9477;51.414;10.362;2023-03-03T01:25:58;3.50;90.40
18694;DHT22;9477;51.414;10.362;2023-03-03T01:28:01;3.60;90.20
18694;DHT22;9477;51.414;10.362;2023-03-03T01:30:07;3.70;89.90
18694;DHT22;9477;51.414;10.362;2023-03-03T01:32:10;3.80;89.70
18694;DHT22;9477;51.414;10.362;2023-03-03T01:34:13;3.90;89.20
18694;DHT22;9477;51.414;10.362;2023-03-03T01:36:22;3.90;88.60
18694;DHT22;9477;51.414;10.362;2023-03-03T01:38:25;3.90;88.30
18694;DHT22;9477;51.414;10.362;2023-03-03T01:40:29;3.90;88.30
18694;DHT22;9477;51.414;10.362;2023-03-03T01:42:34;3.80;87.10
18694;DHT22;9477;51.414;10.362;2023-03-03T01:44:36;3.90;87.50
18694;DHT22;9477;51.414;10.362;2023-03-03T01:46:50;3.80;87.10
18694;DHT22;9477;51.414;10.362;2023-03-03T01:48:58;3.80;87.50
18694;DHT22;9477;51.414;10.362;2023-03-03T01:51:08;3.80;87.30
18694;DHT22;9477;51.414;10.362;2023-03-03T01:53:18;3.50;86.60
18694;DHT22;9477;51.414;10.362;2023-03-03T01:55:24;3.30;86.80
18694;DHT22;9477;51.414;10.362;2023-03-03T01:57:32;3.30;87.80
18694;DHT22;9477;51.414;10.362;2023-03-03T01:59:41;3.50;88.30
18694;DHT22;9477;51.414;10.362;2023-03-03T02:01:47;3.30;87.50
18694;DHT22;9477;51.414;10.362;2023-03-03T02:03:50;3.40;88.30
18694;DHT22;9477;51.414;10.362;2023-03-03T02:05:58;3.20;88.10
18694;DHT22;9477;51.414;10.362;2023-03-03T02:08:02;3.50;89.20
18694;DHT22;9477;51.414;10.362;2023-03-03T02:10:07;3.70;89.10
18694;DHT22;9477;51.414;10.362;2023-03-03T02:12:16;3.90;88.60
18694;DHT22;9477;51.414;10.362;2023-03-03T02:14:19;4.10;88.20
18694;DHT22;9477;51.414;10.362;2023-03-03T02:16:24;4.10;87.50
18694;DHT22;9477;51.414;10.362;2023-03-03T02:18:27;4.20;87.10
18694;DHT22;9477;51.414;10.362;2023-03-03T02:20:48;4.20;86.80
18694;DHT22;9477;51.414;10.362;2023-03-03T02:22:56;4.10;86.60
18694;DHT22;9477;51.414;10.362;2023-03-03T02:25:02;4.30;86.80
18694;DHT22;9477;51.414;10.362;2023-03-03T02:27:08;4.30;86.60
18694;DHT22;9477;51.414;10.362;2023-03-03T02:29:11;4.30;86.20
18694;DHT22;9477;51.414;10.362;2023-03-03T02:31:17;4.30;86.10
18694;DHT22;9477;51.414;10.362;2023-03-03T02:33:20;4.30;86.30
18694;DHT22;9477;51.414;10.362;2023-03-03T02:35:29;4.30;86.10
18694;DHT22;9477;51.414;10.362;2023-03-03T02:37:33;4.40;86.20
18694;DHT22;9477;51.414;10.362;2023-03-03T02:39:36;4.30;85.80
18694;DHT22;9477;51.414;10.362;2023-03-03T02:41:43;4.20;85.80
18694;DHT22;9477;51.414;10.362;2023-03-03T02:43:52;4.00;85.50
18694;DHT22;9477;51.414;10.362;2023-03-03T02:45:56;3.90;86.00
18694;DHT22;9477;51.414;10.362;2023-03-03T02:47:59;3.80;86.50
18694;DHT22;9477;51.414;10.362;2023-03-03T02:50:03;3.70;86.60
18694;DHT22;9477;51.414;10.362;2023-03-03T02:52:07;3.80;87.00
18694;DHT22;9477;51.414;10.362;2023-03-03T02:54:12;3.80;86.90
18694;DHT22;9477;51.414;10.362;2023-03-03T02:56:15;3.90;87.00
18694;DHT22;9477;51.414;10.362;2023-03-03T02:58:18;3.90;86.80
18694;DHT22;9477;51.414;10.362;2023-03-03T03:00:23;3.90;86.50
18694;DHT22;9477;51.414;10.362;2023-03-03T03:02:26;4.00;86.90
18694;DHT22;9477;51.414;10.362;2023-03-03T03:04:28;3.60;85.90
18694;DHT22;9477;51.414;10.362;2023-03-03T03:06:31;3.60;86.20
18694;DHT22;9477;51.414;10.362;2023-03-03T03:08:34;3.50;86.20
18694;DHT22;9477;51.414;10.362;2023-03-03T03:10:37;3.40;85.80
18694;DHT22;9477;51.414;10.362;2023-03-03T03:12:40;3.40;86.50
18694;DHT22;9477;51.414;10.362;2023-03-03T03:14:43;3.20;86.30
18694;DHT22;9477;51.414;10.362;2023-03-03T03:16:47;3.00;86.50
18694;DHT22;9477;51.414;10.362;2023-03-03T03:18:50;3.10;87.10
18694;DHT22;9477;51.414;10.362;2023-03-03T03:20:53;2.90;87.40
18694;DHT22;9477;51.414;10.362;2023-03-03T03:22:56;3.00;87.80
18694;DHT22;9477;51.414;10.362;2023-03-03T03:24:59;2.80;87.50
18694;DHT22;9477;51.414;10.362;2023-03-03T03:27:02;2.90;87.70
18694;DHT22;9477;51.414;10.362;2023-03-03T03:29:05;2.80;87.30
18694;DHT22;9477;51.414;10.362;2023-03-03T03:31:09;3.00;88.30
18694;DHT22;9477;51.414;10.362;2023-03-03T03:33:13;3.30;88.50
18694;DHT22;9477;51.414;10.362;2023-03-03T03:35:16;3.50;88.20
18694;DHT22;9477;51.414;10.362;2023-03-03T03:37:19;3.60;87.50
18694;DHT22;9477;51.414;10.362;2023-03-03T03:39:22;3.70;86.90
18694;DHT22;9477;51.414;10.362;2023-03-03T03:41:24;3.80;86.80
18694;DHT22;9477;51.414;10.362;2023-03-03T03:43:27;3.80;86.50
18694;DHT22;9477;51.414;10.362;2023-03-03T03:45:30;3.70;86.20
18694;DHT22;9477;51.414;10.362;2023-03-03T03:47:34;3.80;86.50
18694;DHT22;9477;51.414;10.362;2023-03-03T03:49:38;3.80;86.10
18694;DHT22;9477;51.414;10.362;2023-03-03T03:51:41;3.90;86.10
18694;DHT22;9477;51.414;10.362;2023-03-03T03:53:44;3.90;86.10
18694;DHT22;9477;51.414;10.362;2023-03-03T03:55:47;3.90;86.00
18694;DHT22;9477;51.414;10.362;2023-03-03T03:57:50;3.80;85.80
18694;DHT22;9477;51.414;10.362;2023-03-03T03:59:52;3.80;86.00
18694;DHT22;9477;51.414;10.362;2023-03-03T04:01:55;3.80;86.10
18694;DHT22;9477;51.414;10.362;2023-03-03T04:03:58;3.90;86.40
18694;DHT22;9477;51.414;10.362;2023-03-03T04:06:03;4.00;86.10
18694;DHT22;9477;51.414;10.362;2023-03-03T04:08:06;3.80;86.40
18694;DHT22;9477;51.414;10.362;2023-03-03T04:10:10;3.90;86.60
18694;DHT22;9477;51.414;10.362;2023-03-03T04:12:13;3.80;86.50
18694;DHT22;9477;51.414;10.362;2023-03-03T04:14:15;3.60;86.40
18694;DHT22;9477;51.414;10.362;2023-03-03T04:16:18;3.30;87.00
18694;DHT22;9477;51.414;10.362;2023-03-03T04:18:21;3.20;87.50
18694;DHT22;9477;51.414;10.362;2023-03-03T04:20:24;3.20;88.90
18694;DHT22;9477;51.414;10.362;2023-03-03T04:22:29;2.80;89.80
18694;DHT22;9477;51.414;10.362;2023-03-03T04:24:34;2.80;90.10
18694;DHT22;9477;51.414;10.362;2023-03-03T04:26:37;3.00;90.10
18694;DHT22;9477;51.414;10.362;2023-03-03T04:28:40;3.20;90.10
18694;DHT22;9477;51.414;10.362;2023-03-03T04:30:43;3.30;90.00
18694;DHT22;9477;51.414;10.362;2023-03-03T04:32:46;2.90;90.00
18694;DHT22;9477;51.414;10.362;2023-03-03T04:34:50;2.80;90.30
18694;DHT22;9477;51.414;10.362;2023-03-03T04:37:07;3.10;90.50
18694;DHT22;9477;51.414;10.362;2023-03-03T04:39:11;2.80;90.50
18694;DHT22;9477;51.414;10.362;2023-03-03T04:41:14;2.50;90.80
18694;DHT22;9477;51.414;10.362;2023-03-03T04:43:17;2.60;91.00
18694;DHT22;9477;51.414;10.362;2023-03-03T04:45:20;2.70;91.10
18694;DHT22;9477;51.414;10.362;2023-03-03T04:47:23;2.90;91.20
18694;DHT22;9477;51.414;10.362;2023-03-03T04:49:26;3.00;91.10
18694;DHT22;9477;51.414;10.362;2023-03-03T04:51:29;2.70;91.00
18694;DHT22;9477;51.414;10.362;2023-03-03T04:53:32;2.60;91.50
18694;DHT22;9477;51.414;10.362;2023-03-03T04:55:37;2.80;91.20
18694;DHT22;9477;51.414;10.362;2023-03-03T04:57:40;2.70;91.20
18694;DHT22;9477;51.414;10.362;2023-03-03T04:59:43;2.70;91.10
18694;DHT22;9477;51.414;10.362;2023-03-03T05:01:46;2.10;91.20
18694;DHT22;9477;51.414;10.362;2023-03-03T05:03:49;1.90;92.20
18694;DHT22;9477;51.414;10.362;2023-03-03T05:05:52;2.10;92.30
18694;DHT22;9477;51.414;10.362;2023-03-03T05:07:55;2.20;92.30
18694;DHT22;9477;51.414;10.362;2023-03-03T05:09:58;2.10;92.00
18694;DHT22;9477;51.414;10.362;2023-03-03T05:12:03;2.20;92.20
18694;DHT22;9477;51.414;10.362;2023-03-03T05:14:05;2.20;92.10
18694;DHT22;9477;51.414;10.362;2023-03-03T05:16:09;2.30;92.10
18694;DHT22;9477;51.414;10.362;2023-03-03T05:18:12;2.50;92.10
18694;DHT22;9477;51.414;10.362;2023-03-03T05:20:15;2.40;91.80
18694;DHT22;9477;51.414;10.362;2023-03-03T05:22:19;2.40;92.00
18694;DHT22;9477;51.414;10.362;2023-03-03T05:24:21;2.50;91.90
18694;DHT22;9477;51.414;10.362;2023-03-03T05:26:24;2.60;91.80
18694;DHT22;9477;51.414;10.362;2023-03-03T05:28:29;2.70;91.80
18694;DHT22;9477;51.414;10.362;2023-03-03T05:30:31;2.80;91.70
18694;DHT22;9477;51.414;10.362;2023-03-03T05:32:34;3.00;91.70
18694;DHT22;9477;51.414;10.362;2023-03-03T05:34:37;3.30;91.60
18694;DHT22;9477;51.414;10.362;2023-03-03T05:36:40;3.40;91.20
18694;DHT22;9477;51.414;10.362;2023-03-03T05:38:43;2.90;90.20
18694;DHT22;9477;51.414;10.362;2023-03-03T05:40:46;3.10;90.60
18694;DHT22;9477;51.414;10.362;2023-03-03T05:42:49;3.20;90.80
18694;DHT22;9477;51.414;10.362;2023-03-03T05:44:53;2.80;90.80
18694;DHT22;9477;51.414;10.362;2023-03-03T05:46:56;2.90;91.40
18694;DHT22;9477;51.414;10.362;2023-03-03T05:48:59;2.80;91.20
18694;DHT22;9477;51.414;10.362;2023-03-03T05:51:03;2.70;91.40
18694;DHT22;9477;51.414;10.362;2023-03-03T05:53:06;2.60;91.50
18694;DHT22;9477;51.414;10.362;2023-03-03T05:55:10;2.60;91.50
18694;DHT22;9477;51.414;10.362;2023-03-03T05:57:13;2.10;91.60
18694;DHT22;9477;51.414;10.362;2023-03-03T05:59:16;2.10;92.10
18694;DHT22;9477;51.414;10.362;2023-03-03T06:01:21;2.00;92.50
18694;DHT22;9477;51.414;10.362;2023-03-03T06:03:24;2.20;92.60
18694;DHT22;9477;51.414;10.362;2023-03-03T06:05:26;2.20;92.60
18694;DHT22;9477;51.414;10.362;2023-03-03T06:07:29;1.70;92.40
18694;DHT22;9477;51.414;10.362;2023-03-03T06:09:32;1.60;92.80
18694;DHT22;9477;51.414;10.362;2023-03-03T06:11:35;1.60;93.20
18694;DHT22;9477;51.414;10.362;2023-03-03T06:13:38;1.80;93.30
18694;DHT22;9477;51.414;10.362;2023-03-03T06:15:43;1.70;93.20
18694;DHT22;9477;51.414;10.362;2023-03-03T06:17:47;1.70;93.30
18694;DHT22;9477;51.414;10.362;2023-03-03T06:19:50;1.80;93.30
18694;DHT22;9477;51.414;10.362;2023-03-03T06:21:53;2.00;93.30
18694;DHT22;9477;51.414;10.362;2023-03-03T06:23:56;1.60;93.00
18694;DHT22;9477;51.414;10.362;2023-03-03T06:25:59;1.60;93.10
18694;DHT22;9477;51.414;10.362;2023-03-03T06:28:02;1.40;93.10
18694;DHT22;9477;51.414;10.362;2023-03-03T06:30:06;1.80;93.40
18694;DHT22;9477;51.414;10.362;2023-03-03T06:32:09;2.10;93.50
18694;DHT22;9477;51.414;10.362;2023-03-03T06:34:14;2.30;93.30
18694;DHT22;9477;51.414;10.362;2023-03-03T06:36:16;2.30;93.00
18694;DHT22;9477;51.414;10.362;2023-03-03T06:38:20;2.50;92.80
18694;DHT22;9477;51.414;10.362;2023-03-03T06:40:22;2.80;92.90
18694;DHT22;9477;51.414;10.362;2023-03-03T06:42:25;3.00;92.70
18694;DHT22;9477;51.414;10.362;2023-03-03T06:44:28;3.10;92.40
18694;DHT22;9477;51.414;10.362;2023-03-03T06:46:31;3.20;92.00
18694;DHT22;9477;51.414;10.362;2023-03-03T06:48:34;3.30;91.80
18694;DHT22;9477;51.414;10.362;2023-03-03T06:50:38;3.40;91.80
18694;DHT22;9477;51.414;10.362;2023-03-03T06:52:41;3.60;91.70
18694;DHT22;9477;51.414;10.362;2023-03-03T06:54:44;3.50;91.00
18694;DHT22;9477;51.414;10.362;2023-03-03T06:56:48;3.50;91.00
18694;DHT22;9477;51.414;10.362;2023-03-03T06:58:55;3.10;90.20
18694;DHT22;9477;51.414;10.362;2023-03-03T07:01:00;3.20;90.90
18694;DHT22;9477;51.414;10.362;2023-03-03T07:03:07;3.30;91.00
18694;DHT22;9477;51.414;10.362;2023-03-03T07:05:15;3.30;90.80
18694;DHT22;9477;51.414;10.362;2023-03-03T07:07:22;3.40;90.90
18694;DHT22;9477;51.414;10.362;2023-03-03T07:09:28;3.40;90.80
18694;DHT22;9477;51.414;10.362;2023-03-03T07:11:32;3.60;91.10
18694;DHT22;9477;51.414;10.362;2023-03-03T07:13:40;3.70;90.80
18694;DHT22;9477;51.414;10.362;2023-03-03T07:15:44;3.80;90.60
18694;DHT22;9477;51.414;10.362;2023-03-03T07:17:49;3.40;88.60
18694;DHT22;9477;51.414;10.362;2023-03-03T07:19:54;2.90;88.60
18694;DHT22;9477;51.414;10.362;2023-03-03T07:21:57;2.50;89.70
18694;DHT22;9477;51.414;10.362;2023-03-03T07:24:23;2.50;90.40
18694;DHT22;9477;51.414;10.362;2023-03-03T07:26:29;2.70;91.00
18694;DHT22;9477;51.414;10.362;2023-03-03T07:28:33;2.90;91.00
18694;DHT22;9477;51.414;10.362;2023-03-03T07:30:36;3.20;91.20
18694;DHT22;9477;51.414;10.362;2023-03-03T07:32:41;3.40;90.90
18694;DHT22;9477;51.414;10.362;2023-03-03T07:34:46;3.60;90.80
18694;DHT22;9477;51.414;10.362;2023-03-03T07:36:52;3.70;90.50
18694;DHT22;9477;51.414;10.362;2023-03-03T07:38:58;3.60;90.20
18694;DHT22;9477;51.414;10.362;2023-03-03T07:41:05;3.40;89.70
18694;DHT22;9477;51.414;10.362;2023-03-03T07:43:26;3.30;90.00
18694;DHT22;9477;51.414;10.362;2023-03-03T07:45:35;3.30;90.10
18694;DHT22;9477;51.414;10.362;2023-03-03T07:47:39;2.90;89.80
18694;DHT22;9477;51.414;10.362;2023-03-03T07:49:42;3.10;90.60
18694;DHT22;9477;51.414;10.362;2023-03-03T07:51:44;3.10;90.30
18694;DHT22;9477;51.414;10.362;2023-03-03T07:53:48;3.30;90.50
18694;DHT22;9477;51.414;10.362;2023-03-03T07:55:51;2.40;89.40
18694;DHT22;9477;51.414;10.362;2023-03-03T07:57:56;3.00;90.40
18694;DHT22;9477;51.414;10.362;2023-03-03T08:02:34;3.00;90.50
18694;DHT22;9477;51.414;10.362;2023-03-03T08:04:41;3.10;90.70
18694;DHT22;9477;51.414;10.362;2023-03-03T08:06:47;3.40;91.00
18694;DHT22;9477;51.414;10.362;2023-03-03T08:08:51;3.50;90.40
18694;DHT22;9477;51.414;10.362;2023-03-03T08:10:55;3.30;89.40
18694;DHT22;9477;51.414;10.362;2023-03-03T08:13:08;3.60;90.30
18694;DHT22;9477;51.414;10.362;2023-03-03T08:15:20;3.70;90.00
18694;DHT22;9477;51.414;10.362;2023-03-03T08:17:24;3.80;90.00
18694;DHT22;9477;51.414;10.362;2023-03-03T08:19:31;4.10;90.30
18694;DHT22;9477;51.414;10.362;2023-03-03T08:21:35;4.10;88.70
18694;DHT22;9477;51.414;10.362;2023-03-03T08:23:38;4.20;88.90
18694;DHT22;9477;51.414;10.362;2023-03-03T08:25:42;4.30;89.10
18694;DHT22;9477;51.414;10.362;2023-03-03T08:27:45;4.10;87.60
18694;DHT22;9477;51.414;10.362;2023-03-03T08:29:49;4.30;89.00
18694;DHT22;9477;51.414;10.362;2023-03-03T08:31:52;4.50;89.20
18694;DHT22;9477;51.414;10.362;2023-03-03T08:33:55;4.70;89.30
18694;DHT22;9477;51.414;10.362;2023-03-03T08:35:59;4.90;89.00
18694;DHT22;9477;51.414;10.362;2023-03-03T08:38:03;4.70;86.90
18694;DHT22;9477;51.414;10.362;2023-03-03T08:40:08;4.70;88.10
18694;DHT22;9477;51.414;10.362;2023-03-03T08:42:11;5.00;88.90
18694;DHT22;9477;51.414;10.362;2023-03-03T08:44:16;5.20;88.90
18694;DHT22;9477;51.414;10.362;2023-03-03T08:46:21;5.40;88.80
18694;DHT22;9477;51.414;10.362;2023-03-03T08:48:25;5.60;88.70
18694;DHT22;9477;51.414;10.362;2023-03-03T08:50:29;5.60;88.10
18694;DHT22;9477;51.414;10.362;2023-03-03T08:52:31;5.70;87.80
18694;DHT22;9477;51.414;10.362;2023-03-03T08:54:34;5.70;87.40
18694;DHT22;9477;51.414;10.362;2023-03-03T08:56:38;5.70;87.10
18694;DHT22;9477;51.414;10.362;2023-03-03T08:58:41;5.60;86.80
18694;DHT22;9477;51.414;10.362;2023-03-03T09:01:02;5.70;87.70
18694;DHT22;9477;51.414;10.362;2023-03-03T09:03:07;5.30;86.20
18694;DHT22;9477;51.414;10.362;2023-03-03T09:05:11;4.90;86.00
18694;DHT22;9477;51.414;10.362;2023-03-03T09:07:15;4.80;86.70
18694;DHT22;9477;51.414;10.362;2023-03-03T09:09:18;4.70;87.70
18694;DHT22;9477;51.414;10.362;2023-03-03T09:11:24;4.50;88.10
18694;DHT22;9477;51.414;10.362;2023-03-03T09:13:29;4.70;88.90
18694;DHT22;9477;51.414;10.362;2023-03-03T09:15:33;4.80;88.60
18694;DHT22;9477;51.414;10.362;2023-03-03T09:17:36;4.80;88.50
18694;DHT22;9477;51.414;10.362;2023-03-03T09:19:40;5.00;88.90
18694;DHT22;9477;51.414;10.362;2023-03-03T09:21:44;4.90;88.30
18694;DHT22;9477;51.414;10.362;2023-03-03T09:23:51;4.70;88.00
18694;DHT22;9477;51.414;10.362;2023-03-03T09:25:56;4.90;89.30
18694;DHT22;9477;51.414;10.362;2023-03-03T09:27:59;5.30;89.80
18694;DHT22;9477;51.414;10.362;2023-03-03T09:30:14;5.10;87.70
18694;DHT22;9477;51.414;10.362;2023-03-03T09:32:26;5.20;88.00
18694;DHT22;9477;51.414;10.362;2023-03-03T09:34:38;5.10;88.00
18694;DHT22;9477;51.414;10.362;2023-03-03T09:36:43;5.20;88.30
18694;DHT22;9477;51.414;10.362;2023-03-03T09:38:46;5.10;87.70
18694;DHT22;9477;51.414;10.362;2023-03-03T09:41:01;5.30;88.90
18694;DHT22;9477;51.414;10.362;2023-03-03T09:43:08;5.50;88.70
18694;DHT22;9477;51.414;10.362;2023-03-03T09:45:28;5.80;89.00
18694;DHT22;9477;51.414;10.362;2023-03-03T09:47:43;5.90;88.00
18694;DHT22;9477;51.414;10.362;2023-03-03T09:49:56;6.00;88.10
18694;DHT22;9477;51.414;10.362;2023-03-03T09:52:17;6.30;88.50
18694;DHT22;9477;51.414;10.362;2023-03-03T09:54:31;6.40;87.60
18694;DHT22;9477;51.414;10.362;2023-03-03T09:56:39;6.40;87.40
18694;DHT22;9477;51.414;10.362;2023-03-03T09:58:52;6.50;87.20
18694;DHT22;9477;51.414;10.362;2023-03-03T10:01:09;6.40;86.00
18694;DHT22;9477;51.414;10.362;2023-03-03T10:06:00;6.10;86.50
18694;DHT22;9477;51.414;10.362;2023-03-03T10:08:23;6.20;86.70
18694;DHT22;9477;51.414;10.362;2023-03-03T10:10:43;5.90;85.60
18694;DHT22;9477;51.414;10.362;2023-03-03T10:12:56;5.70;86.10
18694;DHT22;9477;51.414;10.362;2023-03-03T10:15:17;5.20;85.10
18694;DHT22;9477;51.414;10.362;2023-03-03T10:17:31;5.10;86.60
18694;DHT22;9477;51.414;10.362;2023-03-03T10:19:39;5.30;87.60
18694;DHT22;9477;51.414;10.362;2023-03-03T10:21:48;5.50;87.80
18694;DHT22;9477;51.414;10.362;2023-03-03T10:23:55;5.60;87.00
18694;DHT22;9477;51.414;10.362;2023-03-03T10:26:08;5.30;86.40
18694;DHT22;9477;51.414;10.362;2023-03-03T10:28:52;4.70;85.80
18694;DHT22;9477;51.414;10.362;2023-03-03T10:31:05;5.00;88.50
18694;DHT22;9477;51.414;10.362;2023-03-03T10:33:22;5.30;87.70
18694;DHT22;9477;51.414;10.362;2023-03-03T10:35:41;5.30;88.00
18694;DHT22;9477;51.414;10.362;2023-03-03T10:38:15;5.50;87.60
18694;DHT22;9477;51.414;10.362;2023-03-03T10:40:26;5.40;87.20
18694;DHT22;9477;51.414;10.362;2023-03-03T10:42:45;5.40;87.20
18694;DHT22;9477;51.414;10.362;2023-03-03T10:45:12;5.40;86.80
18694;DHT22;9477;51.414;10.362;2023-03-03T10:47:37;5.70;87.80
18694;DHT22;9477;51.414;10.362;2023-03-03T10:49:55;6.00;88.10
18694;DHT22;9477;51.414;10.362;2023-03-03T10:54:59;6.10;86.20
18694;DHT22;9477;51.414;10.362;2023-03-03T10:57:15;6.30;86.80
18694;DHT22;9477;51.414;10.362;2023-03-03T10:59:33;6.50;86.20
18694;DHT22;9477;51.414;10.362;2023-03-03T11:01:46;6.30;84.80
18694;DHT22;9477;51.414;10.362;2023-03-03T11:04:05;5.90;84.10
18694;DHT22;9477;51.414;10.362;2023-03-03T11:06:15;5.90;85.00
18694;DHT22;9477;51.414;10.362;2023-03-03T11:08:26;5.80;85.30
18694;DHT22;9477;51.414;10.362;2023-03-03T11:10:44;5.90;85.80
18694;DHT22;9477;51.414;10.362;2023-03-03T11:12:56;5.70;85.20
18694;DHT22;9477;51.414;10.362;2023-03-03T11:17:52;6.40;87.10
18694;DHT22;9477;51.414;10.362;2023-03-03T11:20:02;6.50;86.00
18694;DHT22;9477;51.414;10.362;2023-03-03T11:22:17;6.40;84.80
18694;DHT22;9477;51.414;10.362;2023-03-03T11:24:50;6.40;84.90
18694;DHT22;9477;51.414;10.362;2023-03-03T11:27:19;6.60;85.90
18694;DHT22;9477;51.414;10.362;2023-03-03T11:29:47;6.60;85.50
18694;DHT22;9477;51.414;10.362;2023-03-03T11:31:55;6.70;85.20
18694;DHT22;9477;51.414;10.362;2023-03-03T11:34:02;6.50;84.10
18694;DHT22;9477;51.414;10.362;2023-03-03T11:36:13;6.50;84.80
18694;DHT22;9477;51.414;10.362;2023-03-03T11:38:33;6.50;84.60
18694;DHT22;9477;51.414;10.362;2023-03-03T11:40:47;6.60;84.50
18694;DHT22;9477;51.414;10.362;2023-03-03T11:42:59;6.40;83.80
18694;DHT22;9477;51.414;10.362;2023-03-03T11:45:12;6.20;83.80
18694;DHT22;9477;51.414;10.362;2023-03-03T11:47:21;6.10;84.20
18694;DHT22;9477;51.414;10.362;2023-03-03T11:49:33;6.20;85.30
18694;DHT22;9477;51.414;10.362;2023-03-03T11:51:46;6.40;85.50
18694;DHT22;9477;51.414;10.362;2023-03-03T11:53:57;6.30;84.80
18694;DHT22;9477;51.414;10.362;2023-03-03T11:56:05;6.30;84.30
18694;DHT22;9477;51.414;10.362;2023-03-03T11:58:13;5.90;84.10
18694;DHT22;9477;51.414;10.362;2023-03-03T12:00:28;6.30;85.40
18694;DHT22;9477;51.414;10.362;2023-03-03T12:02:47;6.20;84.20
18694;DHT22;9477;51.414;10.362;2023-03-03T12:04:55;6.00;84.30
18694;DHT22;9477;51.414;10.362;2023-03-03T12:07:09;6.10;85.10
18694;DHT22;9477;51.414;10.362;2023-03-03T12:09:29;6.00;85.00
18694;DHT22;9477;51.414;10.362;2023-03-03T12:11:42;6.10;85.10
18694;DHT22;9477;51.414;10.362;2023-03-03T12:13:54;5.90;84.90
18694;DHT22;9477;51.414;10.362;2023-03-03T12:16:06;5.50;84.90
18694;DHT22;9477;51.414;10.362;2023-03-03T12:18:30;5.50;84.70
18694;DHT22;9477;51.414;10.362;2023-03-03T12:20:42;5.80;85.80
18694;DHT22;9477;51.414;10.362;2023-03-03T12:22:54;5.90;85.30
18694;DHT22;9477;51.414;10.362;2023-03-03T12:25:32;5.70;84.80
18694;DHT22;9477;51.414;10.362;2023-03-03T12:27:42;5.90;85.40
18694;DHT22;9477;51.414;10.362;2023-03-03T12:29:53;5.80;85.30
18694;DHT22;9477;51.414;10.362;2023-03-03T12:32:04;5.50;85.00
18694;DHT22;9477;51.414;10.362;2023-03-03T12:34:20;5.30;84.80
18694;DHT22;9477;51.414;10.362;2023-03-03T12:39:07;5.50;86.60
18694;DHT22;9477;51.414;10.362;2023-03-03T12:41:20;5.10;85.60
18694;DHT22;9477;51.414;10.362;2023-03-03T12:43:38;5.40;86.20
18694;DHT22;9477;51.414;10.362;2023-03-03T12:45:54;5.10;85.90
18694;DHT22;9477;51.414;10.362;2023-03-03T12:48:07;5.00;86.50
18694;DHT22;9477;51.414;10.362;2023-03-03T12:50:22;4.80;86.90
18694;DHT22;9477;51.414;10.362;2023-03-03T12:52:34;4.90;87.70
18694;DHT22;9477;51.414;10.362;2023-03-03T12:54:52;5.10;88.10
18694;DHT22;9477;51.414;10.362;2023-03-03T12:57:03;4.80;87.10
18694;DHT22;9477;51.414;10.362;2023-03-03T12:59:11;4.90;87.30
18694;DHT22;9477;51.414;10.362;2023-03-03T13:01:30;4.80;87.70
18694;DHT22;9477;51.414;10.362;2023-03-03T13:03:41;4.60;88.40
18694;DHT22;9477;51.414;10.362;2023-03-03T13:06:00;4.90;88.40
18694;DHT22;9477;51.414;10.362;2023-03-03T13:08:29;4.70;88.10
18694;DHT22;9477;51.414;10.362;2023-03-03T13:10:39;4.50;87.80
18694;DHT22;9477;51.414;10.362;2023-03-03T13:12:49;4.40;88.50
18694;DHT22;9477;51.414;10.362;2023-03-03T13:14:58;4.40;88.90
18694;DHT22;9477;51.414;10.362;2023-03-03T13:17:08;4.40;89.20
18694;DHT22;9477;51.414;10.362;2023-03-03T13:19:21;4.30;89.10
18694;DHT22;9477;51.414;10.362;2023-03-03T13:21:29;4.70;89.70
18694;DHT22;9477;51.414;10.362;2023-03-03T13:23:40;5.00;89.10
18694;DHT22;9477;51.414;10.362;2023-03-03T13:25:49;5.30;88.70
18694;DHT22;9477;51.414;10.362;2023-03-03T13:27:58;5.20;87.50
18694;DHT22;9477;51.414;10.362;2023-03-03T13:30:14;5.00;87.00
18694;DHT22;9477;51.414;10.362;2023-03-03T13:32:19;4.70;87.60
18694;DHT22;9477;51.414;10.362;2023-03-03T13:34:33;4.90;88.70
18694;DHT22;9477;51.414;10.362;2023-03-03T13:36:43;5.30;88.70
18694;DHT22;9477;51.414;10.362;2023-03-03T13:38:54;5.40;87.90
18694;DHT22;9477;51.414;10.362;2023-03-03T13:41:06;5.70;87.90
18694;DHT22;9477;51.414;10.362;2023-03-03T13:43:16;5.60;87.10
18694;DHT22;9477;51.414;10.362;2023-03-03T13:45:24;5.70;87.50
18694;DHT22;9477;51.414;10.362;2023-03-03T13:47:36;5.80;87.60
18694;DHT22;9477;51.414;10.362;2023-03-03T13:50:07;5.70;86.70